Time;durP1;ratioP1;P1;durP2;ratioP2;P2;SDS_P1;SDS_P2;PMS_P1;PMS_P2;Temp;Humidity;BMP_temperature;BMP_pressure;BME280_temperature;BME280_humidity;BME280_pressure;Samples;Min_cycle;Max_cycle;Signal;HPM_P1;HPM_P2
2023/10/20 00:01:14;;;;;;;17.38;9.00;;;;;;;23.22;60.06;98604.00;5089937;28;20111;-69
2023/10/20 00:03:40;;;;;;;17.60;9.90;;;;;;;23.15;60.91;98590.44;5071548;28;20033;-69
2023/10/20 00:06:05;;;;;;;15.32;9.02;;;;;;;22.86;61.44;98586.09;5072386;28;20024;-69
2023/10/20 00:08:31;;;;;;;17.35;9.35;;;;;;;22.84;62.14;98576.56;5071982;28;20536;-69
2023/10/20 00:11:04;;;;;;;16.05;8.52;;;;;;;23.06;61.00;98577.16;5072095;28;20479;-68
2023/10/20 00:13:29;;;;;;;;;;;;;;;23.32;60.30;98574.59;5073313;28;20023;-69
2023/10/20 00:15:54;;;;;;;22.60;10.05;;;;;;;23.23;59.82;98572.84;5071452;28;20427;-69
2023/10/20 00:18:20;;;;;;;15.93;9.13;;;;;;;22.80;61.31;98581.34;5072615;28;20065;-69
2023/10/20 00:20:46;;;;;;;15.38;9.55;;;;;;;22.72;62.06;98570.59;5110997;28;20027;-68
2023/10/20 00:23:14;;;;;;;18.60;10.88;;;;;;;23.10;60.46;98573.19;5110777;28;20084;-69
2023/10/20 00:25:39;;;;;;;18.52;9.98;;;;;;;22.95;60.81;98567.53;5092191;28;20035;-68
2023/10/20 00:28:05;;;;;;;0.47;0.47;;;;;;;22.83;61.59;98569.56;5084468;28;21643;-68
2023/10/20 00:30:30;;;;;;;0.30;0.30;;;;;;;22.32;63.18;98571.72;5086514;28;20467;-68
2023/10/20 00:32:56;;;;;;;0.32;0.32;;;;;;;21.88;65.84;98558.97;5075906;28;20087;-68
2023/10/20 00:35:21;;;;;;;0.52;0.52;;;;;;;22.56;64.08;98565.94;5075958;28;20031;-68
2023/10/20 00:37:47;;;;;;;0.17;0.17;;;;;;;22.19;64.13;98566.75;5075756;28;20415;-67
2023/10/20 00:40:12;;;;;;;1.55;1.45;;;;;;;22.83;61.88;98561.56;5075133;28;20024;-67
2023/10/20 00:42:38;;;;;;;1.65;0.80;;;;;;;23.04;61.96;98550.66;5094031;28;20048;-68
2023/10/20 00:45:04;;;;;;;0.85;0.52;;;;;;;22.84;61.80;98545.44;5092735;28;20496;-67
2023/10/20 00:47:31;;;;;;;0.60;0.57;;;;;;;23.09;60.64;98553.69;5077562;28;20031;-68
2023/10/20 00:49:58;;;;;;;0.70;0.40;;;;;;;22.93;61.60;98537.53;5094326;28;20050;-67
2023/10/20 00:52:25;;;;;;;0.00;0.00;;;;;;;23.20;61.01;98540.19;5088464;28;20023;-68
2023/10/20 00:54:54;;;;;;;3.33;0.95;;;;;;;22.31;63.59;98519.50;5076473;28;20462;-69
2023/10/20 00:57:19;;;;;;;0.20;0.10;;;;;;;22.72;62.85;98514.69;5083526;28;20561;-68
2023/10/20 00:59:45;;;;;;;0.00;0.00;;;;;;;22.36;63.66;98506.63;5084594;28;20148;-68
2023/10/20 01:02:12;;;;;;;1.85;0.80;;;;;;;22.71;62.98;98507.72;5093325;28;20034;-68
2023/10/20 01:04:37;;;;;;;0.00;0.00;;;;;;;22.20;64.48;98505.41;5093083;28;20027;-68
2023/10/20 01:07:03;;;;;;;0.28;0.08;;;;;;;22.23;64.79;98498.09;5080750;28;20080;-68
2023/10/20 01:09:28;;;;;;;4.88;1.52;;;;;;;22.24;65.17;98499.78;5081776;28;20033;-68
2023/10/20 01:11:54;;;;;;;1.20;0.90;;;;;;;22.36;64.17;98498.63;5095332;28;20061;-68
2023/10/20 01:14:20;;;;;;;0.43;0.43;;;;;;;22.46;63.60;98503.91;5094719;28;20106;-68
2023/10/20 01:16:46;;;;;;;8.77;4.30;;;;;;;22.61;63.24;98513.06;5101561;28;20035;-68
2023/10/20 01:19:12;;;;;;;0.43;0.43;;;;;;;22.52;62.22;98504.16;5077168;28;20031;-67
2023/10/20 01:21:38;;;;;;;12.82;0.43;;;;;;;22.77;61.82;98506.25;5094987;28;20402;-67
2023/10/20 01:24:04;;;;;;;0.47;0.47;;;;;;;22.64;61.93;98503.94;5113331;28;20054;-68
2023/10/20 01:26:30;;;;;;;0.00;0.00;;;;;;;22.92;61.24;98493.28;5094640;28;20401;-68
2023/10/20 01:28:56;;;;;;;0.28;0.28;;;;;;;22.45;63.14;98489.78;5095462;28;20024;-68
2023/10/20 01:31:25;;;;;;;0.10;0.10;;;;;;;22.70;62.72;98487.38;5100792;28;20038;-68
2023/10/20 01:33:53;;;;;;;0.20;0.20;;;;;;;23.01;60.26;98476.34;5074128;28;20441;-68
2023/10/20 01:36:18;;;;;;;0.17;0.17;;;;;;;22.92;60.58;98466.63;5095216;28;20029;-68
2023/10/20 01:38:44;;;;;;;2.38;2.17;;;;;;;23.31;60.27;98458.34;5112186;28;20110;-68
2023/10/20 01:41:10;;;;;;;1.95;1.23;;;;;;;22.16;63.22;98444.63;5073377;28;20386;-68
2023/10/20 01:43:35;;;;;;;0.10;0.10;;;;;;;22.32;63.40;98449.31;5074277;28;20034;-67
2023/10/20 01:46:01;;;;;;;0.63;0.63;;;;;;;21.97;63.99;98445.59;5074535;28;20412;-68
2023/10/20 01:48:27;;;;;;;0.13;0.13;;;;;;;21.79;64.88;98427.75;5072861;28;20019;-68
2023/10/20 01:50:52;;;;;;;5.28;2.50;;;;;;;21.85;65.55;98432.47;5092110;28;20372;-67
2023/10/20 01:53:17;;;;;;;1.45;1.35;;;;;;;21.98;64.93;98439.25;5074486;28;20031;-67
2023/10/20 01:55:52;;;;;;;0.00;0.00;;;;;;;22.40;63.87;98440.66;5077812;28;20114;-67
2023/10/20 01:58:20;;;;;;;0.75;0.75;;;;;;;22.45;63.67;98441.88;5074248;28;20032;-68
2023/10/20 02:00:53;;;;;;;0.65;0.65;;;;;;;22.36;62.40;98437.44;5089217;28;20055;-68
2023/10/20 02:03:19;;;;;;;0.10;0.10;;;;;;;22.45;62.15;98428.56;5110029;28;20090;-68
2023/10/20 02:05:45;;;;;;;0.00;0.00;;;;;;;22.15;63.01;98419.03;5094569;28;20037;-68
2023/10/20 02:08:12;;;;;;;0.00;0.00;;;;;;;21.85;64.67;98411.19;5093178;28;20110;-67
2023/10/20 02:10:37;;;;;;;0.00;0.00;;;;;;;22.36;62.27;98398.34;5086033;28;20016;-68
2023/10/20 02:13:03;;;;;;;0.00;0.00;;;;;;;22.19;63.33;98391.16;5094655;28;20068;-67
2023/10/20 02:15:32;;;;;;;0.38;0.38;;;;;;;22.24;63.91;98390.69;5087055;28;20073;-68
2023/10/20 02:17:57;;;;;;;1.65;1.02;;;;;;;22.12;64.48;98379.41;5091112;28;20073;-68
2023/10/20 02:20:25;;;;;;;0.00;0.00;;;;;;;22.56;62.58;98378.75;5083534;28;20209;-68
2023/10/20 02:22:53;;;;;;;0.95;0.88;;;;;;;21.55;65.66;98367.09;5079799;28;20452;-68
2023/10/20 02:25:19;;;;;;;1.35;1.10;;;;;;;22.28;63.76;98362.81;5089616;28;20034;-68
2023/10/20 02:27:45;;;;;;;2.78;0.73;;;;;;;22.86;60.45;98349.06;5073905;28;20020;-68
2023/10/20 02:30:12;;;;;;;1.20;1.10;;;;;;;22.29;63.35;98359.16;5072587;28;20035;-68
2023/10/20 02:32:38;;;;;;;0.43;0.43;;;;;;;22.37;64.03;98351.31;5073671;28;20109;-68
2023/10/20 02:35:04;;;;;;;1.65;0.47;;;;;;;22.34;62.96;98356.94;5092310;28;20112;-69
2023/10/20 02:37:30;;;;;;;0.98;0.98;;;;;;;22.25;64.35;98352.47;5084660;28;20027;-68
2023/10/20 02:39:55;;;;;;;0.47;0.47;;;;;;;21.94;65.55;98347.47;5078327;28;20081;-68
2023/10/20 02:42:21;;;;;;;0.00;0.00;;;;;;;22.57;61.46;98351.16;5104316;28;20047;-68
2023/10/20 02:44:46;;;;;;;0.85;0.85;;;;;;;23.14;60.75;98332.97;5092171;28;20043;-68
2023/10/20 02:47:11;;;;;;;1.52;0.55;;;;;;;22.50;61.81;98334.94;5076233;28;20035;-69
2023/10/20 02:49:37;;;;;;;0.75;0.32;;;;;;;22.11;63.40;98320.06;5073253;28;20028;-68
2023/10/20 02:52:02;;;;;;;1.38;1.17;;;;;;;22.22;63.71;98323.53;5072542;28;20020;-68
2023/10/20 02:54:27;;;;;;;2.67;1.17;;;;;;;22.39;62.87;98328.03;5086145;28;20023;-68
2023/10/20 02:56:55;;;;;;;0.15;0.15;;;;;;;22.91;61.35;98313.16;5081298;28;20023;-68
2023/10/20 02:59:21;;;;;;;0.88;0.77;;;;;;;22.45;62.56;98314.13;5084756;28;20023;-68
2023/10/20 03:01:46;;;;;;;0.52;0.52;;;;;;;21.40;66.42;98310.91;5092087;28;20023;-68
2023/10/20 03:04:12;;;;;;;0.80;0.80;;;;;;;22.46;62.00;98305.16;5080262;28;20531;-68
2023/10/20 03:06:37;;;;;;;4.65;2.25;;;;;;;22.42;61.71;98311.78;5072721;28;20055;-68
2023/10/20 03:09:03;;;;;;;0.00;0.00;;;;;;;23.00;60.25;98314.88;5073033;28;20519;-68
2023/10/20 03:11:28;;;;;;;5.05;3.10;;;;;;;22.97;60.67;98315.19;5088564;28;20443;-68
2023/10/20 03:13:53;;;;;;;1.27;1.15;;;;;;;22.66;59.82;98313.78;5097945;28;20023;-68
2023/10/20 03:16:19;;;;;;;1.27;1.27;;;;;;;22.80;59.98;98295.59;5093547;28;20111;-68
2023/10/20 03:18:44;;;;;;;1.98;1.13;;;;;;;22.47;61.50;98288.19;5084305;28;20495;-68
2023/10/20 03:21:10;;;;;;;0.35;0.35;;;;;;;22.24;62.38;98276.31;5082122;28;20042;-68
2023/10/20 03:23:36;;;;;;;0.28;0.28;;;;;;;22.72;61.32;98277.72;5088425;28;20395;-68
2023/10/20 03:26:02;;;;;;;2.22;1.77;;;;;;;22.60;60.61;98270.97;5092390;28;20175;-68
2023/10/20 03:28:28;;;;;;;0.95;0.95;;;;;;;22.07;62.94;98270.00;5110749;28;20626;-68
2023/10/20 03:30:54;;;;;;;1.00;0.43;;;;;;;22.22;62.24;98259.69;5080163;28;20033;-68
2023/10/20 03:33:19;;;;;;;3.10;1.15;;;;;;;22.25;61.59;98272.66;5093996;28;20383;-68
2023/10/20 03:35:45;;;;;;;2.90;0.25;;;;;;;22.00;61.00;98267.09;5092082;28;20020;-68
2023/10/20 03:38:11;;;;;;;4.75;2.13;;;;;;;22.50;60.86;98266.59;5092979;28;20034;-68
2023/10/20 03:40:41;;;;;;;2.40;0.57;;;;;;;22.52;60.49;98275.25;5109809;28;20016;-68
2023/10/20 03:43:10;;;;;;;1.23;1.15;;;;;;;22.32;61.00;98273.72;5091418;28;20040;-68
2023/10/20 03:45:41;;;;;;;2.15;1.45;;;;;;;21.72;62.17;98277.78;5111720;28;20028;-69
2023/10/20 03:48:09;;;;;;;0.30;0.30;;;;;;;21.78;62.11;98276.34;5083467;28;20028;-68
2023/10/20 03:50:36;;;;;;;1.98;1.13;;;;;;;21.81;62.11;98265.41;5077101;28;20027;-68
2023/10/20 03:53:01;;;;;;;0.00;0.00;;;;;;;21.63;62.89;98258.22;5090403;28;20107;-68
2023/10/20 03:55:27;;;;;;;0.65;0.65;;;;;;;21.33;64.52;98246.88;5104965;28;20022;-69
2023/10/20 03:57:52;;;;;;;1.75;1.45;;;;;;;21.53;63.81;98252.16;5075886;28;20027;-68
2023/10/20 04:00:18;;;;;;;2.90;0.93;;;;;;;21.45;62.72;98260.81;5077035;28;20295;-68
2023/10/20 04:02:47;;;;;;;0.00;0.00;;;;;;;21.52;62.70;98255.75;5105201;28;20016;-68
2023/10/20 04:05:14;;;;;;;8.77;2.95;;;;;;;21.11;63.38;98242.78;5079341;28;20542;-67
2023/10/20 04:07:42;;;;;;;3.10;0.88;;;;;;;20.88;65.63;98246.78;5098166;28;20015;-68
2023/10/20 04:10:07;;;;;;;0.50;0.50;;;;;;;20.83;65.58;98239.25;5112321;28;20382;-69
2023/10/20 04:12:33;;;;;;;0.08;0.08;;;;;;;20.49;67.26;98221.97;5089721;28;20054;-68
2023/10/20 04:14:58;;;;;;;0.47;0.47;;;;;;;20.58;67.81;98214.13;5090077;28;20417;-68
2023/10/20 04:17:24;;;;;;;0.38;0.38;;;;;;;20.90;66.39;98207.66;5095304;28;20028;-68
2023/10/20 04:19:49;;;;;;;0.10;0.10;;;;;;;21.00;64.47;98200.50;5076509;28;20038;-68
2023/10/20 04:22:17;;;;;;;0.68;0.68;;;;;;;20.93;65.77;98184.31;5075626;28;20089;-68
2023/10/20 04:24:44;;;;;;;0.00;0.00;;;;;;;20.92;65.58;98189.75;5093901;28;20077;-68
2023/10/20 04:27:39;;;;;;;4.85;3.38;;;;;;;20.80;66.02;98203.22;5076008;28;20016;-71
2023/10/20 04:44:57;;;;;;;0.47;0.47;;;;;;;20.81;63.55;98193.44;5099505;28;20119;-69
2023/10/20 04:49:58;;;;;;;0.22;0.22;;;;;;;21.02;63.31;98177.28;5110267;28;20118;-69
2023/10/20 04:59:40;;;;;;;0.55;0.45;;;;;;;21.17;62.39;98167.84;5098618;28;20044;-69
2023/10/20 05:02:13;;;;;;;0.40;0.40;;;;;;;20.54;63.22;98157.03;5074788;28;20077;-69
2023/10/20 05:04:40;;;;;;;;;;;;;;;20.00;66.37;98155.72;5075625;28;20508;-69
2023/10/20 05:07:08;;;;;;;0.77;0.60;;;;;;;19.97;66.30;98153.34;5073704;28;19920;-69
2023/10/20 05:09:40;;;;;;;0.63;0.43;;;;;;;20.68;63.28;98149.47;5091734;28;20406;-69
2023/10/20 05:12:06;;;;;;;0.10;0.10;;;;;;;20.58;64.40;98145.13;5074895;28;20473;-69
2023/10/20 05:14:31;;;;;;;0.68;0.68;;;;;;;20.19;65.76;98139.94;5104649;28;20024;-70
2023/10/20 05:16:57;;;;;;;0.15;0.15;;;;;;;20.15;nan;98132.28;5087427;28;20089;-69
2023/10/20 05:19:23;;;;;;;1.88;1.58;;;;;;;20.10;65.02;98131.84;5093200;28;20028;-69
2023/10/20 05:21:48;;;;;;;0.00;0.00;;;;;;;20.19;65.87;98118.72;5093134;28;20209;-69
2023/10/20 05:24:14;;;;;;;1.00;1.00;;;;;;;19.99;65.66;98113.47;5110156;28;20027;-69
2023/10/20 05:26:39;;;;;;;5.72;2.80;;;;;;;20.28;64.49;98096.66;5111882;28;20496;-69
2023/10/20 05:29:07;;;;;;;1.98;1.88;;;;;;;18.98;69.02;98097.75;5093543;28;20026;-69
2023/10/20 05:31:33;;;;;;;0.70;0.70;;;;;;;19.81;66.73;98106.22;5095259;28;20386;-69
2023/10/20 05:33:59;;;;;;;0.57;0.57;;;;;;;19.12;68.32;98100.03;5092974;28;20035;-69
2023/10/20 05:36:25;;;;;;;1.00;1.00;;;;;;;19.56;66.41;98112.03;5108296;28;20024;-69
2023/10/20 05:38:50;;;;;;;2.38;2.25;;;;;;;18.91;70.62;98115.13;5076654;28;20035;-69
2023/10/20 05:41:16;;;;;;;0.15;0.15;;;;;;;19.38;67.58;98111.88;5074202;28;20052;-69
2023/10/20 05:43:41;;;;;;;0.90;0.90;;;;;;;19.47;66.94;98108.41;5095773;28;20019;-70
2023/10/20 05:46:17;;;;;;;1.08;1.02;;;;;;;19.36;67.06;98101.44;5094469;28;20027;-69
2023/10/20 05:48:43;;;;;;;0.55;0.55;;;;;;;18.88;70.15;98118.06;5075396;28;20062;-69
2023/10/20 05:51:09;;;;;;;0.17;0.17;;;;;;;19.47;67.16;98097.81;5087872;28;20101;-69
2023/10/20 05:53:34;;;;;;;0.93;0.93;;;;;;;19.14;66.89;98098.06;5094540;28;20031;-69
2023/10/20 05:56:00;;;;;;;0.13;0.13;;;;;;;19.22;67.74;98099.16;5110998;28;20058;-68
2023/10/20 05:58:25;;;;;;;0.35;0.35;;;;;;;18.67;69.68;98095.13;5107691;28;20047;-68
2023/10/20 06:00:53;;;;;;;0.28;0.28;;;;;;;19.09;68.77;98094.97;5092173;28;20099;-68
2023/10/20 06:03:18;;;;;;;0.32;0.32;;;;;;;18.96;68.70;98094.41;5073730;28;20023;-68
2023/10/20 06:05:44;;;;;;;0.30;0.30;;;;;;;19.14;66.89;98087.47;5080727;28;20024;-68
2023/10/20 06:08:09;;;;;;;0.88;0.55;;;;;;;18.77;69.78;98082.75;5101296;28;20139;-68
2023/10/20 06:10:36;;;;;;;0.75;0.75;;;;;;;18.44;69.98;98094.47;5088576;28;20023;-68
2023/10/20 06:13:03;;;;;;;0.10;0.10;;;;;;;18.62;70.10;98097.31;5073883;28;20057;-68
2023/10/20 06:15:29;;;;;;;0.70;0.70;;;;;;;18.71;69.53;98085.94;5085250;28;20031;-68
2023/10/20 06:17:54;;;;;;;0.17;0.17;;;;;;;17.94;73.29;98092.50;5091156;28;20027;-67
2023/10/20 06:20:19;;;;;;;0.13;0.13;;;;;;;18.04;73.45;98098.69;5091811;28;20028;-68
2023/10/20 06:22:45;;;;;;;3.72;0.82;;;;;;;18.35;72.74;98104.00;5075156;28;20138;-68
2023/10/20 06:25:12;;;;;;;0.80;0.80;;;;;;;18.67;69.65;98089.81;5072205;28;20024;-67
2023/10/20 06:27:42;;;;;;;0.10;0.10;;;;;;;18.17;72.17;98092.38;5073666;28;20023;-68
2023/10/20 06:30:19;;;;;;;1.15;1.10;;;;;;;18.17;71.65;98097.66;5072397;28;20363;-68
2023/10/20 06:32:46;;;;;;;0.20;0.20;;;;;;;18.23;70.78;98094.47;5083614;28;20024;-68
2023/10/20 06:35:16;;;;;;;0.08;0.08;;;;;;;18.35;71.11;98082.84;5084757;28;20390;-68
2023/10/20 06:40:20;;;;;;;0.00;0.00;;;;;;;18.68;68.07;98080.06;5093260;28;20504;-68
2023/10/20 06:42:46;;;;;;;0.00;0.00;;;;;;;18.34;70.62;98073.25;5083608;28;20167;-68
2023/10/20 06:45:11;;;;;;;0.38;0.38;;;;;;;18.14;71.09;98067.84;5077740;28;20048;-69
2023/10/20 06:47:39;;;;;;;0.00;0.00;;;;;;;18.03;72.07;98081.16;5084112;28;20020;-68
2023/10/20 06:50:05;;;;;;;0.30;0.30;;;;;;;18.12;72.10;98069.81;5073203;28;20020;-68
2023/10/20 06:52:30;;;;;;;0.63;0.63;;;;;;;18.04;71.88;98060.84;5080765;28;20035;-68
2023/10/20 06:54:56;;;;;;;0.20;0.20;;;;;;;18.19;71.63;98063.97;5091191;28;20028;-68
2023/10/20 06:57:23;;;;;;;0.00;0.00;;;;;;;18.41;72.35;98074.41;5077869;28;20042;-67
2023/10/20 06:59:51;;;;;;;0.52;0.52;;;;;;;18.19;71.44;98080.69;5081042;28;20031;-68
2023/10/20 07:02:16;;;;;;;0.60;0.60;;;;;;;17.50;76.23;98075.88;5086409;28;20019;-67
2023/10/20 07:04:42;;;;;;;0.43;0.20;;;;;;;17.74;75.55;98081.75;5091984;28;20031;-67
2023/10/20 07:07:12;;;;;;;0.00;0.00;;;;;;;17.96;73.15;98070.25;5091538;28;20487;-69
2023/10/20 07:09:38;;;;;;;1.08;1.08;;;;;;;18.30;72.54;98079.78;5085373;28;20470;-68
2023/10/20 07:12:03;;;;;;;0.52;0.22;;;;;;;18.08;71.77;98071.03;5077046;28;20035;-68
2023/10/20 07:14:31;;;;;;;1.65;1.38;;;;;;;18.14;71.14;98061.75;5101341;28;20028;-68
2023/10/20 07:16:57;;;;;;;0.05;0.05;;;;;;;18.37;70.08;98062.41;5072587;28;20020;-67
2023/10/20 07:19:22;;;;;;;0.00;0.00;;;;;;;18.24;71.15;98059.16;5071515;28;20024;-68
2023/10/20 07:21:50;;;;;;;0.00;0.00;;;;;;;18.84;68.16;98069.00;5086765;28;20051;-68
2023/10/20 07:24:15;;;;;;;0.00;0.00;;;;;;;18.34;69.34;98062.69;5073011;28;20475;-67
2023/10/20 07:26:42;;;;;;;0.00;0.00;;;;;;;18.02;83.01;98073.34;5078759;28;20031;-68
2023/10/20 07:29:07;;;;;;;0.75;0.63;;;;;;;18.14;71.21;98062.56;5076625;28;20024;-68
2023/10/20 07:31:34;;;;;;;0.15;0.15;;;;;;;18.44;70.21;98063.56;5111037;28;20026;-67
2023/10/20 07:34:01;;;;;;;0.10;0.10;;;;;;;18.02;71.46;98053.03;5091317;28;20439;-68
2023/10/20 07:36:27;;;;;;;0.57;0.57;;;;;;;18.11;71.08;98052.25;5091127;28;20054;-67
2023/10/20 07:38:52;;;;;;;0.57;0.57;;;;;;;18.19;70.99;98053.41;5092350;28;20478;-68
2023/10/20 07:41:17;;;;;;;0.90;0.90;;;;;;;17.88;70.75;98048.06;5085321;28;20044;-67
2023/10/20 07:43:43;;;;;;;0.00;0.00;;;;;;;17.97;71.55;98064.00;5094882;28;20024;-68
2023/10/20 07:46:16;;;;;;;1.98;0.63;;;;;;;18.04;72.27;98051.13;5075806;28;20028;-67
2023/10/20 07:48:42;;;;;;;0.10;0.10;;;;;;;18.14;71.91;98059.09;5074686;28;20118;-67
2023/10/20 07:51:07;;;;;;;0.00;0.00;;;;;;;18.62;68.47;98060.28;5108537;28;20434;-68
2023/10/20 07:53:33;;;;;;;0.17;0.17;;;;;;;17.62;73.15;98056.38;5111553;28;20364;-68
2023/10/20 07:55:58;;;;;;;0.30;0.30;;;;;;;17.99;72.04;98048.03;5094359;28;20024;-67
2023/10/20 07:58:23;;;;;;;0.00;0.00;;;;;;;17.35;74.03;98041.88;5078524;28;20492;-68
2023/10/20 08:00:49;;;;;;;0.00;0.00;;;;;;;17.55;74.42;98047.28;5087869;28;20046;-68
2023/10/20 08:03:14;;;;;;;0.00;0.00;;;;;;;18.18;71.09;98038.53;5097373;28;20550;-67
2023/10/20 08:05:40;;;;;;;0.50;0.50;;;;;;;17.98;71.26;98030.47;5080805;28;20028;-68
2023/10/20 08:08:05;;;;;;;0.00;0.00;;;;;;;17.54;73.28;98027.13;5093711;28;20081;-67
2023/10/20 08:10:32;;;;;;;0.00;0.00;;;;;;;17.85;73.02;98019.28;5092799;28;20060;-68
2023/10/20 08:12:58;;;;;;;0.00;0.00;;;;;;;18.08;70.46;98012.03;5081245;28;20039;-68
2023/10/20 08:15:27;;;;;;;0.20;0.20;;;;;;;17.54;73.43;97995.44;5095789;28;20047;-68
2023/10/20 08:17:53;;;;;;;0.00;0.00;;;;;;;16.99;75.40;98006.13;5075716;28;20453;-67
2023/10/20 08:20:19;;;;;;;1.40;1.30;;;;;;;16.96;75.10;98013.31;5080535;28;20099;-67
2023/10/20 08:22:44;;;;;;;0.00;0.00;;;;;;;17.47;73.31;98016.22;5093813;28;20019;-67
2023/10/20 08:25:10;;;;;;;0.00;0.00;;;;;;;17.59;72.66;98030.22;5097704;28;20372;-69
2023/10/20 08:27:35;;;;;;;0.00;0.00;;;;;;;17.30;74.01;98015.81;5093388;28;20050;-68
2023/10/20 08:30:01;;;;;;;0.00;0.00;;;;;;;17.18;73.39;98010.72;5076163;28;20440;-68
2023/10/20 08:32:26;;;;;;;1.60;0.97;;;;;;;17.33;73.48;98013.91;5075629;28;20066;-67
2023/10/20 08:34:52;;;;;;;0.20;0.20;;;;;;;17.02;73.76;98012.00;5093279;28;20034;-67
2023/10/20 08:37:17;;;;;;;0.05;0.05;;;;;;;17.32;73.75;98007.78;5095942;28;20399;-68
2023/10/20 08:39:46;;;;;;;0.10;0.10;;;;;;;17.46;71.46;97999.56;5076525;28;20024;-68
2023/10/20 08:42:16;;;;;;;0.20;0.20;;;;;;;17.50;71.76;98005.41;5090828;28;20047;-68
2023/10/20 08:44:43;;;;;;;0.10;0.10;;;;;;;17.64;72.02;98001.63;5099727;28;20068;-69
2023/10/20 08:47:10;;;;;;;0.30;0.30;;;;;;;17.39;72.80;98008.97;5076286;28;20031;-67
2023/10/20 08:49:38;;;;;;;0.43;0.43;;;;;;;17.51;71.78;98006.25;5090485;28;20020;-68
2023/10/20 08:52:07;;;;;;;0.00;0.00;;;;;;;17.38;73.29;98012.56;5076067;28;20020;-71
2023/10/20 08:54:33;;;;;;;0.70;0.57;;;;;;;17.48;72.18;97995.97;5095722;28;20027;-67
2023/10/20 08:56:58;;;;;;;0.17;0.17;;;;;;;17.49;70.97;97997.63;5112343;28;20027;-67
2023/10/20 08:59:24;;;;;;;0.00;0.00;;;;;;;16.92;73.06;98000.50;5090754;28;20031;-67
2023/10/20 09:01:51;;;;;;;0.13;0.13;;;;;;;16.82;74.83;97999.53;5079646;28;20383;-69
2023/10/20 09:04:24;;;;;;;0.00;0.00;;;;;;;16.87;74.29;98003.47;5074637;28;20483;-68
2023/10/20 09:06:52;;;;;;;0.20;0.13;;;;;;;16.73;74.41;98003.75;5075428;28;20169;-67
2023/10/20 09:09:19;;;;;;;0.00;0.00;;;;;;;16.69;75.09;97994.41;5086678;28;20114;-68
2023/10/20 09:11:45;;;;;;;0.00;0.00;;;;;;;16.62;75.59;98004.59;5098227;28;20501;-68
2023/10/20 09:14:12;;;;;;;0.00;0.00;;;;;;;17.31;71.36;98006.13;5095095;28;20027;-67
2023/10/20 09:16:38;;;;;;;0.00;0.00;;;;;;;17.08;73.05;98006.19;5095289;28;20015;-68
2023/10/20 09:19:04;;;;;;;0.00;0.00;;;;;;;17.29;72.29;98008.03;5110083;28;20035;-68
2023/10/20 09:21:30;;;;;;;0.00;0.00;;;;;;;17.26;73.44;98006.47;5091061;28;20023;-68
2023/10/20 09:24:00;;;;;;;0.00;0.00;;;;;;;16.24;76.30;98005.84;5092299;28;20024;-68
2023/10/20 09:26:27;;;;;;;1.80;1.07;;;;;;;16.88;72.83;97996.41;5079943;28;20020;-68
2023/10/20 09:28:54;;;;;;;0.00;0.00;;;;;;;17.01;73.37;98007.66;5080282;28;20024;-68
2023/10/20 09:31:20;;;;;;;0.00;0.00;;;;;;;17.30;71.43;97999.97;5073580;28;20024;-67
2023/10/20 09:33:46;;;;;;;0.57;0.33;;;;;;;16.39;74.88;97996.75;5076656;28;20027;-67
2023/10/20 09:36:12;;;;;;;0.00;0.00;;;;;;;16.37;75.33;98001.28;5094739;28;20169;-67
2023/10/20 09:38:38;;;;;;;0.00;0.00;;;;;;;16.60;73.74;98001.25;5093798;28;20034;-67
2023/10/20 09:41:11;;;;;;;0.00;0.00;;;;;;;16.38;78.72;97992.41;5091445;28;20074;-68
2023/10/20 09:44:00;;;;;;;0.10;0.10;;;;;;;17.22;72.02;97991.88;5075045;28;20024;-68
2023/10/20 09:46:39;;;;;;;0.00;0.00;;;;;;;18.21;66.69;97982.75;5067270;28;20068;-67
2023/10/20 09:49:26;;;;;;;0.00;0.00;;;;;;;16.88;70.98;97970.84;5073492;28;20400;-68
2023/10/20 09:51:52;;;;;;;0.00;0.00;;;;;;;17.35;69.06;97986.44;5092397;28;20035;-68
2023/10/20 09:54:22;;;;;;;0.00;0.00;;;;;;;17.52;69.07;97970.97;5078535;28;20039;-67
2023/10/20 09:56:49;;;;;;;0.00;0.00;;;;;;;17.13;69.97;97961.81;5079386;28;20023;-70
2023/10/20 09:59:20;;;;;;;0.00;0.00;;;;;;;17.50;69.64;97967.59;5081621;28;20070;-70
2023/10/20 10:01:46;;;;;;;0.07;0.07;;;;;;;17.36;69.80;97959.03;5094578;28;20028;-68
2023/10/20 10:04:11;;;;;;;0.00;0.00;;;;;;;17.27;69.43;97957.19;5110006;28;20413;-68
2023/10/20 10:06:38;;;;;;;0.00;0.00;;;;;;;17.83;68.23;97958.63;5092970;28;20120;-67
2023/10/20 10:09:07;;;;;;;0.00;0.00;;;;;;;17.09;70.38;97955.09;5099789;28;20544;-67
2023/10/20 10:11:39;;;;;;;0.00;0.00;;;;;;;17.79;68.53;97960.69;5080328;28;20583;-67
2023/10/20 10:14:05;;;;;;;0.00;0.00;;;;;;;16.47;73.93;97958.38;5074742;28;20537;-70
2023/10/20 10:16:32;;;;;;;0.00;0.00;;;;;;;17.16;69.18;97978.34;5078242;28;20079;-68
2023/10/20 10:19:09;;;;;;;0.00;0.00;;;;;;;17.33;69.46;97961.94;5079383;28;20484;-70
2023/10/20 10:21:42;;;;;;;0.00;0.00;;;;;;;17.33;68.83;97961.13;5090118;28;20453;-68
2023/10/20 10:24:16;;;;;;;0.00;0.00;;;;;;;17.21;70.22;97953.22;5093367;28;20432;-67
2023/10/20 10:27:06;;;;;;;0.00;0.00;;;;;;;17.23;69.94;97955.78;5084741;28;20048;-68
2023/10/20 10:29:57;;;;;;;0.00;0.00;;;;;;;16.86;71.54;97953.50;5080131;28;20548;-68
2023/10/20 10:32:27;;;;;;;0.00;0.00;;;;;;;16.44;72.41;97943.63;5080410;28;20077;-68
2023/10/20 10:34:53;;;;;;;0.00;0.00;;;;;;;17.19;69.91;97954.34;5100827;28;20475;-68
2023/10/20 10:37:30;;;;;;;0.00;0.00;;;;;;;18.10;65.46;97947.50;5072543;28;20024;-68
2023/10/20 10:40:10;;;;;;;0.00;0.00;;;;;;;17.30;68.96;97943.72;5072406;28;20070;-67
2023/10/20 10:42:38;;;;;;;0.00;0.00;;;;;;;17.63;67.78;97936.56;5086853;28;20054;-68
2023/10/20 10:45:16;;;;;;;0.00;0.00;;;;;;;17.03;70.39;97937.13;5091491;28;20448;-68
2023/10/20 10:47:41;;;;;;;0.00;0.00;;;;;;;16.86;69.17;97922.66;5111027;28;20486;-68
2023/10/20 10:50:07;;;;;;;0.10;0.10;;;;;;;16.92;70.29;97924.00;5072997;28;20031;-68
2023/10/20 10:52:33;;;;;;;0.00;0.00;;;;;;;16.70;72.32;97917.78;5081769;28;20023;-68
2023/10/20 10:54:58;;;;;;;0.00;0.00;;;;;;;17.71;66.78;97902.41;5075810;28;20044;-68
2023/10/20 10:57:24;;;;;;;0.00;0.00;;;;;;;16.96;70.64;97902.50;5091748;28;20071;-69
2023/10/20 10:59:49;;;;;;;0.00;0.00;;;;;;;16.65;71.49;97896.25;5077252;28;20110;-68
2023/10/20 11:02:15;;;;;;;0.00;0.00;;;;;;;16.51;71.59;97888.63;5099950;28;20475;-67
2023/10/20 11:04:41;;;;;;;0.00;0.00;;;;;;;17.02;70.95;97890.63;5086511;28;20379;-68
2023/10/20 11:07:06;;;;;;;0.00;0.00;;;;;;;16.93;71.88;97894.84;5091167;28;20035;-68
2023/10/20 11:09:33;;;;;;;0.00;0.00;;;;;;;17.52;69.11;97897.03;5073389;28;20019;-69
2023/10/20 11:11:58;;;;;;;0.07;0.07;;;;;;;17.42;68.61;97900.44;5091381;28;20479;-68
2023/10/20 11:14:24;;;;;;;0.00;0.00;;;;;;;16.95;69.31;97882.38;5093499;28;20023;-67
2023/10/20 11:16:50;;;;;;;0.00;0.00;;;;;;;17.43;67.45;97878.38;5085593;28;20028;-68
2023/10/20 11:19:17;;;;;;;0.00;0.00;;;;;;;17.92;65.54;97872.50;5072031;28;20043;-67
2023/10/20 11:21:51;;;;;;;0.00;0.00;;;;;;;17.10;69.28;97861.78;5084484;28;20433;-68
2023/10/20 11:24:37;;;;;;;0.00;0.00;;;;;;;17.27;68.35;97859.53;5090605;28;20031;-67
2023/10/20 11:27:11;;;;;;;0.10;0.10;;;;;;;17.26;68.55;97856.03;5084178;28;20024;-67
2023/10/20 11:29:37;;;;;;;0.00;0.00;;;;;;;16.86;70.37;97853.25;5091067;28;20081;-68
2023/10/20 11:32:07;;;;;;;0.00;0.00;;;;;;;17.08;70.83;97858.44;5083335;28;20544;-67
2023/10/20 11:34:36;;;;;;;0.00;0.00;;;;;;;16.81;70.48;97855.44;5077772;28;20016;-67
2023/10/20 11:37:03;;;;;;;0.00;0.00;;;;;;;17.16;68.49;97849.88;5086962;28;20019;-68
2023/10/20 11:39:30;;;;;;;0.00;0.00;;;;;;;16.63;73.57;97838.34;5086149;28;20114;-68
2023/10/20 11:41:56;;;;;;;0.00;0.00;;;;;;;17.32;70.66;97846.75;5082729;28;20093;-67
2023/10/20 11:44:26;;;;;;;0.00;0.00;;;;;;;17.69;69.21;97851.50;5096252;28;20390;-68
2023/10/20 11:46:55;;;;;;;0.00;0.00;;;;;;;17.35;69.34;97851.78;5103920;28;20058;-67
2023/10/20 11:49:21;;;;;;;0.00;0.00;;;;;;;16.73;72.71;97838.44;5082234;28;20475;-68
2023/10/20 11:51:47;;;;;;;0.00;0.00;;;;;;;17.81;68.25;97831.94;5084138;28;20020;-67
2023/10/20 11:54:13;;;;;;;0.10;0.10;;;;;;;18.16;65.81;97836.94;5073600;28;20028;-67
2023/10/20 11:56:40;;;;;;;0.00;0.00;;;;;;;17.97;66.01;97833.28;5074187;28;20432;-67
2023/10/20 11:59:06;;;;;;;0.00;0.00;;;;;;;17.97;66.63;97835.94;5086744;28;20015;-68
2023/10/20 12:01:31;;;;;;;0.00;0.00;;;;;;;17.84;67.50;97830.84;5092153;28;20058;-67